sensor_id;sensor_type;location;lat;lon;timestamp;temperature;humidity
38458;DHT22;24239;48.058;10.486;2023-04-03T00:02:17;1.50;99.90
38458;DHT22;24239;48.058;10.486;2023-04-03T00:04:43;1.60;99.90
38458;DHT22;24239;48.058;10.486;2023-04-03T00:07:09;1.60;99.90
38458;DHT22;24239;48.058;10.486;2023-04-03T00:09:35;1.60;99.90
38458;DHT22;24239;48.058;10.486;2023-04-03T00:12:00;1.50;99.90
38458;DHT22;24239;48.058;10.486;2023-04-03T00:14:26;1.50;99.90
38458;DHT22;24239;48.058;10.486;2023-04-03T00:16:52;1.60;99.90
38458;DHT22;24239;48.058;10.486;2023-04-03T00:19:18;1.60;99.90
38458;DHT22;24239;48.058;10.486;2023-04-03T00:21:44;1.50;99.90
38458;DHT22;24239;48.058;10.486;2023-04-03T00:24:12;1.60;99.90
38458;DHT22;24239;48.058;10.486;2023-04-03T00:26:56;1.60;99.90
38458;DHT22;24239;48.058;10.486;2023-04-03T00:29:24;1.40;99.90
38458;DHT22;24239;48.058;10.486;2023-04-03T00:31:59;1.40;99.90
38458;DHT22;24239;48.058;10.486;2023-04-03T00:37:05;1.50;99.90
38458;DHT22;24239;48.058;10.486;2023-04-03T00:39:37;1.40;99.90
38458;DHT22;24239;48.058;10.486;2023-04-03T00:42:14;1.50;99.90
38458;DHT22;24239;48.058;10.486;2023-04-03T00:47:20;1.50;99.90
38458;DHT22;24239;48.058;10.486;2023-04-03T00:52:54;1.50;99.90
38458;DHT22;24239;48.058;10.486;2023-04-03T00:55:26;1.50;99.90
38458;DHT22;24239;48.058;10.486;2023-04-03T00:57:55;1.50;99.90
38458;DHT22;24239;48.058;10.486;2023-04-03T01:00:40;1.40;99.90
38458;DHT22;24239;48.058;10.486;2023-04-03T01:03:14;1.40;99.90
38458;DHT22;24239;48.058;10.486;2023-04-03T01:05:50;1.40;99.90
38458;DHT22;24239;48.058;10.486;2023-04-03T01:08:22;1.40;99.90
38458;DHT22;24239;48.058;10.486;2023-04-03T01:13:52;1.50;99.90
38458;DHT22;24239;48.058;10.486;2023-04-03T01:16:21;1.40;99.90
38458;DHT22;24239;48.058;10.486;2023-04-03T01:18:55;1.40;99.90
38458;DHT22;24239;48.058;10.486;2023-04-03T01:27:34;1.40;99.90
38458;DHT22;24239;48.058;10.486;2023-04-03T01:30:07;1.30;99.90
38458;DHT22;24239;48.058;10.486;2023-04-03T01:32:42;1.30;99.90
38458;DHT22;24239;48.058;10.486;2023-04-03T01:35:16;1.20;99.90
38458;DHT22;24239;48.058;10.486;2023-04-03T01:37:50;1.20;99.90
38458;DHT22;24239;48.058;10.486;2023-04-03T01:40:26;1.30;99.90
38458;DHT22;24239;48.058;10.486;2023-04-03T01:43:02;1.30;99.90
38458;DHT22;24239;48.058;10.486;2023-04-03T01:45:35;1.30;99.90
38458;DHT22;24239;48.058;10.486;2023-04-03T01:48:12;1.30;99.90
38458;DHT22;24239;48.058;10.486;2023-04-03T01:50:59;1.30;99.90
38458;DHT22;24239;48.058;10.486;2023-04-03T01:53:35;1.30;99.90
38458;DHT22;24239;48.058;10.486;2023-04-03T01:56:08;1.20;99.90
38458;DHT22;24239;48.058;10.486;2023-04-03T01:58:42;1.40;99.90
38458;DHT22;24239;48.058;10.486;2023-04-03T02:01:14;1.20;99.90
38458;DHT22;24239;48.058;10.486;2023-04-03T02:03:44;1.30;99.90
38458;DHT22;24239;48.058;10.486;2023-04-03T02:06:12;1.20;99.90
38458;DHT22;24239;48.058;10.486;2023-04-03T02:08:42;1.20;99.90
38458;DHT22;24239;48.058;10.486;2023-04-03T02:11:10;1.20;99.90
38458;DHT22;24239;48.058;10.486;2023-04-03T02:13:36;1.20;99.90
38458;DHT22;24239;48.058;10.486;2023-04-03T02:16:08;1.30;99.90
38458;DHT22;24239;48.058;10.486;2023-04-03T02:18:35;1.30;99.90
38458;DHT22;24239;48.058;10.486;2023-04-03T02:21:01;1.20;99.90
38458;DHT22;24239;48.058;10.486;2023-04-03T02:23:26;1.40;99.90
38458;DHT22;24239;48.058;10.486;2023-04-03T02:25:52;1.40;99.90
38458;DHT22;24239;48.058;10.486;2023-04-03T02:28:18;1.30;99.90
38458;DHT22;24239;48.058;10.486;2023-04-03T02:30:43;1.30;99.90
38458;DHT22;24239;48.058;10.486;2023-04-03T02:33:09;1.30;99.90
38458;DHT22;24239;48.058;10.486;2023-04-03T02:35:35;1.30;99.90
38458;DHT22;24239;48.058;10.486;2023-04-03T02:38:04;1.40;99.90
38458;DHT22;24239;48.058;10.486;2023-04-03T02:40:31;1.30;99.90
38458;DHT22;24239;48.058;10.486;2023-04-03T02:42:59;1.30;99.90
38458;DHT22;24239;48.058;10.486;2023-04-03T02:45:24;1.40;99.90
38458;DHT22;24239;48.058;10.486;2023-04-03T02:47:50;1.30;99.90
38458;DHT22;24239;48.058;10.486;2023-04-03T02:50:16;1.30;99.90
38458;DHT22;24239;48.058;10.486;2023-04-03T02:52:42;1.30;99.90
38458;DHT22;24239;48.058;10.486;2023-04-03T02:55:08;1.20;99.90
38458;DHT22;24239;48.058;10.486;2023-04-03T02:57:33;1.30;99.90
38458;DHT22;24239;48.058;10.486;2023-04-03T02:59:59;1.30;99.90
38458;DHT22;24239;48.058;10.486;2023-04-03T03:02:25;1.20;99.90
38458;DHT22;24239;48.058;10.486;2023-04-03T03:04:51;1.30;99.90
38458;DHT22;24239;48.058;10.486;2023-04-03T03:07:19;1.40;99.90
38458;DHT22;24239;48.058;10.486;2023-04-03T03:09:46;1.00;99.90
38458;DHT22;24239;48.058;10.486;2023-04-03T03:12:12;1.20;99.90
38458;DHT22;24239;48.058;10.486;2023-04-03T03:14:37;1.20;99.90
38458;DHT22;24239;48.058;10.486;2023-04-03T03:17:07;1.20;99.90
38458;DHT22;24239;48.058;10.486;2023-04-03T03:19:32;1.20;99.90
38458;DHT22;24239;48.058;10.486;2023-04-03T03:21:58;1.20;99.90
38458;DHT22;24239;48.058;10.486;2023-04-03T03:24:24;1.30;99.90
38458;DHT22;24239;48.058;10.486;2023-04-03T03:26:51;1.20;99.90
38458;DHT22;24239;48.058;10.486;2023-04-03T03:29:16;1.20;99.90
38458;DHT22;24239;48.058;10.486;2023-04-03T03:31:42;1.10;99.90
38458;DHT22;24239;48.058;10.486;2023-04-03T03:34:08;1.10;99.90
38458;DHT22;24239;48.058;10.486;2023-04-03T03:36:33;1.50;99.90
38458;DHT22;24239;48.058;10.486;2023-04-03T03:39:00;1.10;99.90
38458;DHT22;24239;48.058;10.486;2023-04-03T03:41:25;1.20;99.90
38458;DHT22;24239;48.058;10.486;2023-04-03T03:43:51;1.10;99.90
38458;DHT22;24239;48.058;10.486;2023-04-03T03:46:17;1.20;99.90
38458;DHT22;24239;48.058;10.486;2023-04-03T03:48:42;1.20;99.90
38458;DHT22;24239;48.058;10.486;2023-04-03T03:51:08;1.20;99.90
38458;DHT22;24239;48.058;10.486;2023-04-03T03:53:34;1.20;99.90
38458;DHT22;24239;48.058;10.486;2023-04-03T03:55:59;1.20;99.90
38458;DHT22;24239;48.058;10.486;2023-04-03T03:58:25;1.10;99.90
38458;DHT22;24239;48.058;10.486;2023-04-03T04:00:51;1.20;99.90
38458;DHT22;24239;48.058;10.486;2023-04-03T04:03:16;1.10;99.90
38458;DHT22;24239;48.058;10.486;2023-04-03T04:05:42;1.20;99.90
38458;DHT22;24239;48.058;10.486;2023-04-03T04:08:08;1.20;99.90
38458;DHT22;24239;48.058;10.486;2023-04-03T04:10:34;1.10;99.90
38458;DHT22;24239;48.058;10.486;2023-04-03T04:13:01;1.30;99.90
38458;DHT22;24239;48.058;10.486;2023-04-03T04:15:26;1.20;99.90
38458;DHT22;24239;48.058;10.486;2023-04-03T04:17:52;1.20;99.90
38458;DHT22;24239;48.058;10.486;2023-04-03T04:20:18;1.10;99.90
38458;DHT22;24239;48.058;10.486;2023-04-03T04:22:44;1.10;99.90
38458;DHT22;24239;48.058;10.486;2023-04-03T04:25:10;1.20;99.90
38458;DHT22;24239;48.058;10.486;2023-04-03T04:27:36;1.20;99.90
38458;DHT22;24239;48.058;10.486;2023-04-03T04:30:05;1.20;99.90
38458;DHT22;24239;48.058;10.486;2023-04-03T04:32:31;1.10;99.90
38458;DHT22;24239;48.058;10.486;2023-04-03T04:34:57;1.60;99.90
38458;DHT22;24239;48.058;10.486;2023-04-03T04:37:23;1.20;99.90
38458;DHT22;24239;48.058;10.486;2023-04-03T04:39:49;1.20;99.90
38458;DHT22;24239;48.058;10.486;2023-04-03T04:42:14;1.10;99.90
38458;DHT22;24239;48.058;10.486;2023-04-03T04:44:40;1.10;99.90
38458;DHT22;24239;48.058;10.486;2023-04-03T04:47:06;1.10;99.90
38458;DHT22;24239;48.058;10.486;2023-04-03T04:49:32;1.20;99.90
38458;DHT22;24239;48.058;10.486;2023-04-03T04:52:00;1.20;99.90
38458;DHT22;24239;48.058;10.486;2023-04-03T04:54:25;1.10;99.90
38458;DHT22;24239;48.058;10.486;2023-04-03T04:56:51;1.20;99.90
38458;DHT22;24239;48.058;10.486;2023-04-03T04:59:17;1.00;99.90
38458;DHT22;24239;48.058;10.486;2023-04-03T05:01:43;1.10;99.90
38458;DHT22;24239;48.058;10.486;2023-04-03T05:04:09;1.10;99.90
38458;DHT22;24239;48.058;10.486;2023-04-03T05:06:35;1.10;99.90
38458;DHT22;24239;48.058;10.486;2023-04-03T05:09:01;1.00;99.90
38458;DHT22;24239;48.058;10.486;2023-04-03T05:11:27;1.20;99.90
38458;DHT22;24239;48.058;10.486;2023-04-03T05:13:52;1.20;99.90
38458;DHT22;24239;48.058;10.486;2023-04-03T05:16:18;1.10;99.90
38458;DHT22;24239;48.058;10.486;2023-04-03T05:18:44;1.30;99.90
38458;DHT22;24239;48.058;10.486;2023-04-03T05:21:09;1.10;99.90
38458;DHT22;24239;48.058;10.486;2023-04-03T05:23:35;1.20;99.90
38458;DHT22;24239;48.058;10.486;2023-04-03T05:26:01;1.20;99.90
38458;DHT22;24239;48.058;10.486;2023-04-03T05:28:27;1.20;99.90
38458;DHT22;24239;48.058;10.486;2023-04-03T05:30:53;1.10;99.90
38458;DHT22;24239;48.058;10.486;2023-04-03T05:33:20;1.20;99.90
38458;DHT22;24239;48.058;10.486;2023-04-03T05:35:46;1.20;99.90
38458;DHT22;24239;48.058;10.486;2023-04-03T05:38:11;1.20;99.90
38458;DHT22;24239;48.058;10.486;2023-04-03T05:40:37;1.10;99.90
38458;DHT22;24239;48.058;10.486;2023-04-03T05:43:03;1.20;99.90
38458;DHT22;24239;48.058;10.486;2023-04-03T05:45:28;1.50;99.90
38458;DHT22;24239;48.058;10.486;2023-04-03T05:47:54;1.30;99.90
38458;DHT22;24239;48.058;10.486;2023-04-03T05:50:20;1.20;99.90
38458;DHT22;24239;48.058;10.486;2023-04-03T05:52:48;1.40;99.90
38458;DHT22;24239;48.058;10.486;2023-04-03T05:55:15;1.30;99.90
38458;DHT22;24239;48.058;10.486;2023-04-03T05:57:40;1.50;99.90
38458;DHT22;24239;48.058;10.486;2023-04-03T06:00:07;1.50;99.90
38458;DHT22;24239;48.058;10.486;2023-04-03T06:02:33;1.40;99.90
38458;DHT22;24239;48.058;10.486;2023-04-03T06:04:58;1.50;99.90
38458;DHT22;24239;48.058;10.486;2023-04-03T06:07:24;1.50;99.90
38458;DHT22;24239;48.058;10.486;2023-04-03T06:09:54;1.50;99.90
38458;DHT22;24239;48.058;10.486;2023-04-03T06:12:21;1.50;99.90
38458;DHT22;24239;48.058;10.486;2023-04-03T06:14:47;1.50;99.90
38458;DHT22;24239;48.058;10.486;2023-04-03T06:17:14;1.50;99.90
38458;DHT22;24239;48.058;10.486;2023-04-03T06:19:40;1.50;99.90
38458;DHT22;24239;48.058;10.486;2023-04-03T06:22:09;1.60;99.90
38458;DHT22;24239;48.058;10.486;2023-04-03T06:24:37;1.60;99.90
38458;DHT22;24239;48.058;10.486;2023-04-03T06:27:03;1.60;99.90
38458;DHT22;24239;48.058;10.486;2023-04-03T06:29:29;1.90;99.90
38458;DHT22;24239;48.058;10.486;2023-04-03T06:31:58;1.60;99.90
38458;DHT22;24239;48.058;10.486;2023-04-03T06:34:24;1.70;99.90
38458;DHT22;24239;48.058;10.486;2023-04-03T06:36:50;1.80;99.90
38458;DHT22;24239;48.058;10.486;2023-04-03T06:39:19;1.80;99.90
38458;DHT22;24239;48.058;10.486;2023-04-03T06:41:48;1.80;99.90
38458;DHT22;24239;48.058;10.486;2023-04-03T06:44:14;1.80;99.90
38458;DHT22;24239;48.058;10.486;2023-04-03T06:46:41;1.70;99.90
38458;DHT22;24239;48.058;10.486;2023-04-03T06:49:07;1.90;99.90
38458;DHT22;24239;48.058;10.486;2023-04-03T06:51:34;1.80;99.90
38458;DHT22;24239;48.058;10.486;2023-04-03T06:54:00;1.80;99.90
38458;DHT22;24239;48.058;10.486;2023-04-03T06:56:26;1.80;99.90
38458;DHT22;24239;48.058;10.486;2023-04-03T06:58:52;1.70;99.90
38458;DHT22;24239;48.058;10.486;2023-04-03T07:01:20;1.80;99.90
38458;DHT22;24239;48.058;10.486;2023-04-03T07:03:46;1.80;99.90
38458;DHT22;24239;48.058;10.486;2023-04-03T07:06:14;1.70;99.90
38458;DHT22;24239;48.058;10.486;2023-04-03T07:08:40;1.90;99.90
38458;DHT22;24239;48.058;10.486;2023-04-03T07:11:07;1.90;99.90
38458;DHT22;24239;48.058;10.486;2023-04-03T07:13:34;1.70;99.90
38458;DHT22;24239;48.058;10.486;2023-04-03T07:16:00;1.90;99.90
38458;DHT22;24239;48.058;10.486;2023-04-03T07:18:26;1.90;99.90
38458;DHT22;24239;48.058;10.486;2023-04-03T07:20:52;1.80;99.90
38458;DHT22;24239;48.058;10.486;2023-04-03T07:23:18;1.80;99.90
38458;DHT22;24239;48.058;10.486;2023-04-03T07:25:44;1.80;99.90
38458;DHT22;24239;48.058;10.486;2023-04-03T07:28:10;1.80;99.90
38458;DHT22;24239;48.058;10.486;2023-04-03T07:30:47;1.90;99.90
38458;DHT22;24239;48.058;10.486;2023-04-03T07:33:14;1.80;99.90
38458;DHT22;24239;48.058;10.486;2023-04-03T07:35:41;1.70;99.90
38458;DHT22;24239;48.058;10.486;2023-04-03T07:38:10;1.90;99.90
38458;DHT22;24239;48.058;10.486;2023-04-03T07:40:36;1.90;99.90
38458;DHT22;24239;48.058;10.486;2023-04-03T07:43:05;2.10;99.90
38458;DHT22;24239;48.058;10.486;2023-04-03T07:45:32;2.30;99.90
38458;DHT22;24239;48.058;10.486;2023-04-03T07:47:59;2.40;99.90
38458;DHT22;24239;48.058;10.486;2023-04-03T07:50:25;2.60;99.90
38458;DHT22;24239;48.058;10.486;2023-04-03T07:52:53;2.60;99.90
38458;DHT22;24239;48.058;10.486;2023-04-03T07:55:21;2.50;99.90
38458;DHT22;24239;48.058;10.486;2023-04-03T07:57:47;2.50;99.90
38458;DHT22;24239;48.058;10.486;2023-04-03T08:00:15;2.60;99.90
38458;DHT22;24239;48.058;10.486;2023-04-03T08:02:43;2.60;99.90
38458;DHT22;24239;48.058;10.486;2023-04-03T08:05:10;2.70;99.90
38458;DHT22;24239;48.058;10.486;2023-04-03T08:07:36;2.70;99.90
38458;DHT22;24239;48.058;10.486;2023-04-03T08:10:02;2.70;99.90
38458;DHT22;24239;48.058;10.486;2023-04-03T08:12:29;2.70;99.90
38458;DHT22;24239;48.058;10.486;2023-04-03T08:14:55;2.80;99.90
38458;DHT22;24239;48.058;10.486;2023-04-03T08:17:21;2.90;99.90
38458;DHT22;24239;48.058;10.486;2023-04-03T08:19:47;3.20;99.90
38458;DHT22;24239;48.058;10.486;2023-04-03T08:22:12;3.30;99.90
38458;DHT22;24239;48.058;10.486;2023-04-03T08:24:38;3.40;99.90
38458;DHT22;24239;48.058;10.486;2023-04-03T08:27:04;3.50;99.90
38458;DHT22;24239;48.058;10.486;2023-04-03T08:29:32;3.70;99.90
38458;DHT22;24239;48.058;10.486;2023-04-03T08:31:58;3.70;99.90
38458;DHT22;24239;48.058;10.486;2023-04-03T08:34:23;3.80;99.90
38458;DHT22;24239;48.058;10.486;2023-04-03T08:36:49;4.10;99.90
38458;DHT22;24239;48.058;10.486;2023-04-03T08:39:15;4.30;99.90
38458;DHT22;24239;48.058;10.486;2023-04-03T08:41:42;4.40;99.90
38458;DHT22;24239;48.058;10.486;2023-04-03T08:44:21;4.40;99.90
38458;DHT22;24239;48.058;10.486;2023-04-03T08:49:33;4.60;99.90
38458;DHT22;24239;48.058;10.486;2023-04-03T08:52:07;4.60;99.90
38458;DHT22;24239;48.058;10.486;2023-04-03T08:54:35;4.90;99.90
38458;DHT22;24239;48.058;10.486;2023-04-03T08:57:03;5.00;99.90
38458;DHT22;24239;48.058;10.486;2023-04-03T08:59:32;5.10;99.90
38458;DHT22;24239;48.058;10.486;2023-04-03T09:01:59;5.00;99.90
38458;DHT22;24239;48.058;10.486;2023-04-03T09:04:30;5.10;99.90
38458;DHT22;24239;48.058;10.486;2023-04-03T09:07:00;5.30;99.90
38458;DHT22;24239;48.058;10.486;2023-04-03T09:14:38;4.80;99.90
38458;DHT22;24239;48.058;10.486;2023-04-03T09:17:21;4.70;99.90
38458;DHT22;24239;48.058;10.486;2023-04-03T09:22:25;4.70;99.90
38458;DHT22;24239;48.058;10.486;2023-04-03T09:25:02;4.90;99.90
38458;DHT22;24239;48.058;10.486;2023-04-03T09:27:31;5.20;99.90
38458;DHT22;24239;48.058;10.486;2023-04-03T09:29:57;5.10;99.90
38458;DHT22;24239;48.058;10.486;2023-04-03T09:32:30;4.80;99.90
38458;DHT22;24239;48.058;10.486;2023-04-03T09:34:57;5.00;99.90
38458;DHT22;24239;48.058;10.486;2023-04-03T09:40:30;5.30;99.90
38458;DHT22;24239;48.058;10.486;2023-04-03T09:43:01;5.40;99.90
38458;DHT22;24239;48.058;10.486;2023-04-03T09:45:32;5.80;99.90
38458;DHT22;24239;48.058;10.486;2023-04-03T09:50:30;5.90;99.90
38458;DHT22;24239;48.058;10.486;2023-04-03T09:52:56;5.90;99.90
38458;DHT22;24239;48.058;10.486;2023-04-03T09:55:25;5.40;99.90
38458;DHT22;24239;48.058;10.486;2023-04-03T09:58:02;5.60;99.90
38458;DHT22;24239;48.058;10.486;2023-04-03T10:00:38;5.60;99.90
38458;DHT22;24239;48.058;10.486;2023-04-03T10:03:08;5.70;99.90
38458;DHT22;24239;48.058;10.486;2023-04-03T10:05:47;5.50;99.90
38458;DHT22;24239;48.058;10.486;2023-04-03T10:10:43;5.40;99.90
38458;DHT22;24239;48.058;10.486;2023-04-03T10:13:12;5.60;99.90
38458;DHT22;24239;48.058;10.486;2023-04-03T10:15:46;5.60;99.90
38458;DHT22;24239;48.058;10.486;2023-04-03T10:18:22;5.90;99.90
38458;DHT22;24239;48.058;10.486;2023-04-03T10:20:51;6.00;99.90
38458;DHT22;24239;48.058;10.486;2023-04-03T10:25:52;6.20;99.90
38458;DHT22;24239;48.058;10.486;2023-04-03T10:28:24;6.00;99.90
38458;DHT22;24239;48.058;10.486;2023-04-03T10:33:47;6.00;99.90
38458;DHT22;24239;48.058;10.486;2023-04-03T10:39:12;5.70;99.90
38458;DHT22;24239;48.058;10.486;2023-04-03T10:41:47;5.80;99.90
38458;DHT22;24239;48.058;10.486;2023-04-03T10:44:20;5.70;99.90
38458;DHT22;24239;48.058;10.486;2023-04-03T10:46:52;6.00;99.90
38458;DHT22;24239;48.058;10.486;2023-04-03T10:51:53;6.10;99.90
38458;DHT22;24239;48.058;10.486;2023-04-03T10:54:24;6.10;99.90
38458;DHT22;24239;48.058;10.486;2023-04-03T10:56:56;6.10;99.90
38458;DHT22;24239;48.058;10.486;2023-04-03T10:59:25;6.30;99.90
38458;DHT22;24239;48.058;10.486;2023-04-03T11:01:56;6.40;99.90
38458;DHT22;24239;48.058;10.486;2023-04-03T11:04:24;6.60;99.90
38458;DHT22;24239;48.058;10.486;2023-04-03T11:06:56;6.90;99.90
38458;DHT22;24239;48.058;10.486;2023-04-03T11:09:26;6.90;99.90
38458;DHT22;24239;48.058;10.486;2023-04-03T11:11:55;7.10;99.90
38458;DHT22;24239;48.058;10.486;2023-04-03T11:17:02;7.10;99.90
38458;DHT22;24239;48.058;10.486;2023-04-03T11:19:39;7.10;99.90
38458;DHT22;24239;48.058;10.486;2023-04-03T11:22:19;7.10;99.90
38458;DHT22;24239;48.058;10.486;2023-04-03T11:24:51;7.00;99.90
38458;DHT22;24239;48.058;10.486;2023-04-03T11:27:19;6.80;99.90
38458;DHT22;24239;48.058;10.486;2023-04-03T11:29:48;6.50;99.90
38458;DHT22;24239;48.058;10.486;2023-04-03T11:32:25;6.40;99.90
38458;DHT22;24239;48.058;10.486;2023-04-03T11:34:56;5.90;99.90
38458;DHT22;24239;48.058;10.486;2023-04-03T11:39:57;5.10;99.90
38458;DHT22;24239;48.058;10.486;2023-04-03T11:48:01;4.70;99.90
38458;DHT22;24239;48.058;10.486;2023-04-03T12:16:02;4.90;99.90
38458;DHT22;24239;48.058;10.486;2023-04-03T12:20:58;5.00;99.90
38458;DHT22;24239;48.058;10.486;2023-04-03T12:23:32;5.00;99.90
38458;DHT22;24239;48.058;10.486;2023-04-03T12:26:03;5.00;99.90
38458;DHT22;24239;48.058;10.486;2023-04-03T12:28:35;5.00;99.90
38458;DHT22;24239;48.058;10.486;2023-04-03T12:31:01;4.90;99.90
38458;DHT22;24239;48.058;10.486;2023-04-03T12:36:08;4.70;99.90
38458;DHT22;24239;48.058;10.486;2023-04-03T12:38:44;4.70;99.90
38458;DHT22;24239;48.058;10.486;2023-04-03T12:43:59;4.80;99.90
38458;DHT22;24239;48.058;10.486;2023-04-03T12:46:43;4.50;99.90
38458;DHT22;24239;48.058;10.486;2023-04-03T12:51:54;4.10;99.90
38458;DHT22;24239;48.058;10.486;2023-04-03T12:56:49;4.20;99.90
38458;DHT22;24239;48.058;10.486;2023-04-03T12:59:25;4.30;99.90
38458;DHT22;24239;48.058;10.486;2023-04-03T13:02:00;4.50;99.90
38458;DHT22;24239;48.058;10.486;2023-04-03T13:04:27;4.90;99.90
38458;DHT22;24239;48.058;10.486;2023-04-03T13:06:56;5.10;99.90
38458;DHT22;24239;48.058;10.486;2023-04-03T13:09:28;5.20;99.90
38458;DHT22;24239;48.058;10.486;2023-04-03T13:11:56;5.30;99.90
38458;DHT22;24239;48.058;10.486;2023-04-03T13:14:25;5.40;99.90
38458;DHT22;24239;48.058;10.486;2023-04-03T13:19:24;5.40;99.90
38458;DHT22;24239;48.058;10.486;2023-04-03T13:22:02;5.10;99.90
38458;DHT22;24239;48.058;10.486;2023-04-03T13:24:31;5.30;99.90
38458;DHT22;24239;48.058;10.486;2023-04-03T13:26:58;5.60;99.90
38458;DHT22;24239;48.058;10.486;2023-04-03T13:29:29;5.70;99.90
38458;DHT22;24239;48.058;10.486;2023-04-03T13:31:56;6.00;99.90
38458;DHT22;24239;48.058;10.486;2023-04-03T13:34:24;5.60;99.90
38458;DHT22;24239;48.058;10.486;2023-04-03T13:41:45;5.60;99.90
38458;DHT22;24239;48.058;10.486;2023-04-03T13:46:53;5.50;99.90
38458;DHT22;24239;48.058;10.486;2023-04-03T13:51:51;5.40;99.90
38458;DHT22;24239;48.058;10.486;2023-04-03T13:54:22;5.30;99.90
38458;DHT22;24239;48.058;10.486;2023-04-03T13:56:53;5.20;99.90
38458;DHT22;24239;48.058;10.486;2023-04-03T14:04:22;5.20;99.90
38458;DHT22;24239;48.058;10.486;2023-04-03T14:06:49;5.30;99.90
38458;DHT22;24239;48.058;10.486;2023-04-03T14:09:18;5.40;99.90
38458;DHT22;24239;48.058;10.486;2023-04-03T14:11:45;5.40;99.90
38458;DHT22;24239;48.058;10.486;2023-04-03T14:14:15;5.50;99.90
38458;DHT22;24239;48.058;10.486;2023-04-03T14:16:46;5.50;99.90
38458;DHT22;24239;48.058;10.486;2023-04-03T14:22:18;5.20;99.90
38458;DHT22;24239;48.058;10.486;2023-04-03T14:24:45;5.20;99.90
38458;DHT22;24239;48.058;10.486;2023-04-03T14:27:16;5.10;99.90
38458;DHT22;24239;48.058;10.486;2023-04-03T14:29:42;5.10;99.90
38458;DHT22;24239;48.058;10.486;2023-04-03T14:32:10;5.00;99.90
38458;DHT22;24239;48.058;10.486;2023-04-03T14:34:36;5.00;99.90
38458;DHT22;24239;48.058;10.486;2023-04-03T14:37:02;4.90;99.90
38458;DHT22;24239;48.058;10.486;2023-04-03T14:39:29;4.80;99.90
38458;DHT22;24239;48.058;10.486;2023-04-03T14:41:55;4.80;99.90
38458;DHT22;24239;48.058;10.486;2023-04-03T14:44:21;4.90;99.90
38458;DHT22;24239;48.058;10.486;2023-04-03T14:46:48;5.10;99.90
38458;DHT22;24239;48.058;10.486;2023-04-03T14:49:19;5.10;99.90
38458;DHT22;24239;48.058;10.486;2023-04-03T14:51:47;5.40;99.90
38458;DHT22;24239;48.058;10.486;2023-04-03T14:54:14;5.40;99.90
38458;DHT22;24239;48.058;10.486;2023-04-03T14:56:40;5.60;99.90
38458;DHT22;24239;48.058;10.486;2023-04-03T14:59:08;5.80;99.90
38458;DHT22;24239;48.058;10.486;2023-04-03T15:01:35;5.70;99.90
38458;DHT22;24239;48.058;10.486;2023-04-03T15:04:00;5.60;99.90
38458;DHT22;24239;48.058;10.486;2023-04-03T15:06:27;5.80;99.90
38458;DHT22;24239;48.058;10.486;2023-04-03T15:08:52;5.70;99.90
38458;DHT22;24239;48.058;10.486;2023-04-03T15:11:18;5.80;99.90
38458;DHT22;24239;48.058;10.486;2023-04-03T15:13:44;5.90;99.90
38458;DHT22;24239;48.058;10.486;2023-04-03T15:16:14;6.00;99.90
38458;DHT22;24239;48.058;10.486;2023-04-03T15:18:41;6.20;99.90
38458;DHT22;24239;48.058;10.486;2023-04-03T15:21:07;6.30;99.90
38458;DHT22;24239;48.058;10.486;2023-04-03T15:23:33;6.30;99.90
38458;DHT22;24239;48.058;10.486;2023-04-03T15:25:59;6.10;99.90
38458;DHT22;24239;48.058;10.486;2023-04-03T15:28:27;6.00;99.90
38458;DHT22;24239;48.058;10.486;2023-04-03T15:30:56;5.50;99.90
38458;DHT22;24239;48.058;10.486;2023-04-03T15:33:22;5.20;99.90
38458;DHT22;24239;48.058;10.486;2023-04-03T15:35:48;4.90;99.80
38458;DHT22;24239;48.058;10.486;2023-04-03T15:38:14;4.70;99.90
38458;DHT22;24239;48.058;10.486;2023-04-03T15:40:42;4.70;99.90
38458;DHT22;24239;48.058;10.486;2023-04-03T15:43:08;4.40;99.90
38458;DHT22;24239;48.058;10.486;2023-04-03T15:45:35;4.50;99.90
38458;DHT22;24239;48.058;10.486;2023-04-03T15:48:02;4.50;99.90
38458;DHT22;24239;48.058;10.486;2023-04-03T15:50:28;4.40;99.10
38458;DHT22;24239;48.058;10.486;2023-04-03T15:52:54;4.30;99.60
38458;DHT22;24239;48.058;10.486;2023-04-03T15:55:24;4.20;99.50
38458;DHT22;24239;48.058;10.486;2023-04-03T15:57:50;4.30;99.50
38458;DHT22;24239;48.058;10.486;2023-04-03T16:00:16;4.50;99.90
38458;DHT22;24239;48.058;10.486;2023-04-03T16:02:44;4.40;99.30
38458;DHT22;24239;48.058;10.486;2023-04-03T16:05:10;4.50;99.90
38458;DHT22;24239;48.058;10.486;2023-04-03T16:07:37;4.60;99.20
38458;DHT22;24239;48.058;10.486;2023-04-03T16:10:03;4.50;99.40
38458;DHT22;24239;48.058;10.486;2023-04-03T16:12:29;4.60;98.90
38458;DHT22;24239;48.058;10.486;2023-04-03T16:14:55;4.40;97.80
38458;DHT22;24239;48.058;10.486;2023-04-03T16:17:21;4.50;98.70
38458;DHT22;24239;48.058;10.486;2023-04-03T16:19:46;4.50;98.50
38458;DHT22;24239;48.058;10.486;2023-04-03T16:22:12;4.40;98.30
38458;DHT22;24239;48.058;10.486;2023-04-03T16:24:38;4.40;99.10
38458;DHT22;24239;48.058;10.486;2023-04-03T16:27:04;4.30;98.50
38458;DHT22;24239;48.058;10.486;2023-04-03T16:29:30;4.40;98.60
38458;DHT22;24239;48.058;10.486;2023-04-03T16:31:56;4.40;98.20
38458;DHT22;24239;48.058;10.486;2023-04-03T16:34:23;4.40;98.60
38458;DHT22;24239;48.058;10.486;2023-04-03T16:36:51;4.50;97.90
38458;DHT22;24239;48.058;10.486;2023-04-03T16:39:18;4.50;97.70
38458;DHT22;24239;48.058;10.486;2023-04-03T16:41:46;4.80;97.50
38458;DHT22;24239;48.058;10.486;2023-04-03T16:44:15;5.10;97.80
38458;DHT22;24239;48.058;10.486;2023-04-03T16:46:41;5.20;97.90
38458;DHT22;24239;48.058;10.486;2023-04-03T16:49:06;5.00;98.10
38458;DHT22;24239;48.058;10.486;2023-04-03T16:51:32;4.80;97.40
38458;DHT22;24239;48.058;10.486;2023-04-03T16:53:58;4.60;97.50
38458;DHT22;24239;48.058;10.486;2023-04-03T16:56:24;4.50;97.70
38458;DHT22;24239;48.058;10.486;2023-04-03T16:58:53;4.60;97.90
38458;DHT22;24239;48.058;10.486;2023-04-03T17:01:20;4.50;98.20
38458;DHT22;24239;48.058;10.486;2023-04-03T17:03:46;4.50;98.40
38458;DHT22;24239;48.058;10.486;2023-04-03T17:06:12;4.50;98.30
38458;DHT22;24239;48.058;10.486;2023-04-03T17:08:41;4.40;98.30
38458;DHT22;24239;48.058;10.486;2023-04-03T17:11:07;4.30;97.80
38458;DHT22;24239;48.058;10.486;2023-04-03T17:13:33;4.20;97.20
38458;DHT22;24239;48.058;10.486;2023-04-03T17:15:59;4.10;97.10
38458;DHT22;24239;48.058;10.486;2023-04-03T17:18:26;4.00;96.90
38458;DHT22;24239;48.058;10.486;2023-04-03T17:20:55;4.00;97.40
38458;DHT22;24239;48.058;10.486;2023-04-03T17:23:23;4.10;97.80
38458;DHT22;24239;48.058;10.486;2023-04-03T17:25:49;3.90;97.30
38458;DHT22;24239;48.058;10.486;2023-04-03T17:28:15;3.80;97.50
38458;DHT22;24239;48.058;10.486;2023-04-03T17:30:41;3.70;97.40
38458;DHT22;24239;48.058;10.486;2023-04-03T17:33:06;3.70;97.40